createdAt,value
2023-05-06T00:01:30.342Z,9.35
2023-05-06T00:03:57.150Z,9.57
2023-05-06T00:06:23.815Z,11.43
2023-05-06T00:08:50.518Z,8.73
2023-05-06T00:11:17.026Z,10.75
2023-05-06T00:13:43.530Z,11.00
2023-05-06T00:16:10.131Z,10.25
2023-05-06T00:18:36.644Z,10.32
2023-05-06T00:21:03.294Z,10.55
2023-05-06T00:23:29.853Z,9.23
2023-05-06T00:25:56.473Z,10.02
2023-05-06T00:28:22.997Z,10.13
2023-05-06T00:30:49.509Z,12.75
2023-05-06T00:33:16.010Z,11.38
2023-05-06T00:35:42.612Z,14.95
2023-05-06T00:38:11.521Z,14.10
2023-05-06T00:40:38.469Z,16.88
2023-05-06T00:43:05.628Z,12.18
2023-05-06T00:45:32.748Z,12.02
2023-05-06T00:47:59.571Z,21.30
2023-05-06T00:50:28.396Z,19.48
2023-05-06T00:52:56.995Z,17.73
2023-05-06T00:55:23.614Z,15.60
2023-05-06T00:57:51.868Z,16.55
2023-05-06T01:00:20.208Z,20.63
2023-05-06T01:02:48.236Z,15.73
2023-05-06T01:05:21.584Z,22.60
2023-05-06T01:08:13.162Z,12.85
2023-05-06T01:10:52.483Z,16.08
2023-05-06T01:13:57.606Z,17.85
2023-05-06T01:16:27.290Z,19.20
2023-05-06T01:18:55.105Z,21.63
2023-05-06T01:21:24.197Z,21.30
2023-05-06T01:26:22.656Z,17.60
2023-05-06T01:28:49.404Z,17.45
2023-05-06T01:31:43.026Z,20.77
2023-05-06T01:36:45.962Z,13.55
2023-05-06T01:39:18.318Z,14.18
2023-05-06T01:41:48.760Z,19.02
2023-05-06T01:44:17.151Z,15.95
2023-05-06T01:46:45.793Z,14.85
2023-05-06T01:49:15.741Z,15.45
2023-05-06T01:51:48.043Z,18.00
2023-05-06T01:54:14.740Z,17.00
2023-05-06T01:56:41.256Z,14.60
2023-05-06T01:59:07.794Z,17.13
2023-05-06T02:01:34.348Z,15.25
2023-05-06T02:06:27.844Z,21.85
2023-05-06T02:08:54.376Z,19.63
2023-05-06T02:11:21.127Z,22.90
2023-05-06T02:13:47.722Z,22.05
2023-05-06T02:16:14.320Z,20.67
2023-05-06T02:18:41.419Z,67.55
2023-05-06T02:21:09.484Z,19.50
2023-05-06T02:23:35.991Z,74.82
2023-05-06T02:26:02.552Z,17.90
2023-05-06T02:28:29.040Z,17.63
2023-05-06T02:30:58.769Z,20.20
2023-05-06T02:33:25.367Z,20.00
2023-05-06T02:35:51.999Z,17.58
2023-05-06T02:38:19.629Z,20.83
2023-05-06T02:40:46.190Z,19.08
2023-05-06T02:43:12.786Z,17.25
2023-05-06T02:45:39.436Z,17.05
2023-05-06T02:48:06.398Z,41.80
2023-05-06T02:50:34.123Z,18.27
2023-05-06T02:53:00.638Z,16.58
2023-05-06T02:55:28.681Z,15.90
2023-05-06T02:57:55.481Z,15.60
2023-05-06T03:00:22.155Z,21.08
2023-05-06T03:02:48.822Z,17.13
2023-05-06T03:05:15.492Z,24.55
2023-05-06T03:07:42.022Z,13.40
2023-05-06T03:10:08.986Z,14.20
2023-05-06T03:12:35.681Z,16.83
2023-05-06T03:15:02.179Z,16.02
2023-05-06T03:17:28.793Z,10.90
2023-05-06T03:19:55.469Z,13.82
2023-05-06T03:22:21.957Z,14.10
2023-05-06T03:24:48.428Z,15.10
2023-05-06T03:27:15.004Z,13.48
2023-05-06T03:29:41.607Z,11.85
2023-05-06T03:32:08.120Z,13.40
2023-05-06T03:34:34.686Z,11.27
2023-05-06T03:37:01.255Z,10.93
2023-05-06T03:39:27.950Z,12.10
2023-05-06T03:41:54.491Z,11.20
2023-05-06T03:44:21.021Z,12.05
2023-05-06T03:46:47.527Z,12.30
2023-05-06T03:49:14.046Z,15.02
2023-05-06T03:51:41.188Z,13.13
2023-05-06T03:54:07.870Z,13.90
2023-05-06T03:56:34.385Z,13.25
2023-05-06T03:59:00.904Z,14.82
2023-05-06T04:01:27.402Z,19.20
2023-05-06T04:03:54.521Z,15.77
2023-05-06T04:06:21.187Z,17.92
2023-05-06T04:08:47.690Z,20.08
2023-05-06T04:11:14.418Z,20.52
2023-05-06T04:13:40.936Z,20.23
2023-05-06T04:16:07.755Z,18.52
2023-05-06T04:18:34.367Z,20.50
2023-05-06T04:21:01.030Z,22.13
2023-05-06T04:23:27.870Z,22.05
2023-05-06T04:25:54.693Z,21.58
2023-05-06T04:28:21.841Z,19.30
2023-05-06T04:30:48.321Z,25.00
2023-05-06T04:33:14.933Z,19.85
2023-05-06T04:35:51.141Z,20.45
2023-05-06T04:38:18.002Z,14.75
2023-05-06T04:40:44.581Z,18.88
2023-05-06T04:43:12.161Z,19.75
2023-05-06T04:45:40.170Z,17.15
2023-05-06T04:48:07.067Z,16.70
2023-05-06T04:50:33.593Z,17.17
2023-05-06T04:53:00.158Z,17.08
2023-05-06T04:55:26.692Z,21.67
2023-05-06T04:57:53.162Z,17.52
2023-05-06T05:00:20.094Z,18.30
2023-05-06T05:02:46.938Z,21.17
2023-05-06T05:05:14.142Z,19.85
2023-05-06T05:07:40.711Z,19.70
2023-05-06T05:10:09.211Z,18.00
2023-05-06T05:12:36.294Z,20.17
2023-05-06T05:15:03.215Z,19.88
2023-05-06T05:17:29.976Z,25.95
2023-05-06T05:19:56.521Z,28.75
2023-05-06T05:22:23.058Z,25.10
2023-05-06T05:24:49.591Z,30.08
2023-05-06T05:27:16.298Z,34.30
2023-05-06T05:29:42.862Z,29.88
2023-05-06T05:32:09.557Z,25.90
2023-05-06T05:34:36.346Z,25.02
2023-05-06T05:37:02.880Z,33.25
2023-05-06T05:39:29.390Z,30.90
2023-05-06T05:41:55.892Z,31.05
2023-05-06T05:44:22.479Z,32.50
2023-05-06T05:46:49.368Z,32.95
2023-05-06T05:49:15.896Z,33.67
2023-05-06T05:51:42.394Z,34.47
2023-05-06T05:54:08.919Z,25.88
2023-05-06T05:56:35.580Z,27.88
2023-05-06T05:59:02.276Z,26.20
2023-05-06T06:01:28.789Z,25.40
2023-05-06T06:03:56.606Z,23.58
2023-05-06T06:06:24.325Z,23.10
2023-05-06T06:08:51.039Z,23.67
2023-05-06T06:11:17.570Z,19.00
2023-05-06T06:13:44.071Z,20.73
2023-05-06T06:16:11.343Z,19.08
2023-05-06T06:18:37.940Z,22.63
2023-05-06T06:21:04.622Z,20.88
2023-05-06T06:23:31.250Z,18.25
2023-05-06T06:25:57.852Z,21.02
2023-05-06T06:28:24.348Z,16.67
2023-05-06T06:30:50.928Z,18.25
2023-05-06T06:33:17.441Z,17.85
2023-05-06T06:35:43.992Z,17.98
2023-05-06T06:38:10.513Z,16.27
2023-05-06T06:40:37.053Z,21.63
2023-05-06T06:43:03.582Z,15.27
2023-05-06T06:45:30.161Z,16.38
2023-05-06T06:47:56.757Z,16.35
2023-05-06T06:50:23.348Z,15.88
2023-05-06T06:52:49.837Z,15.85
2023-05-06T06:55:16.275Z,14.98
2023-05-06T06:57:42.872Z,14.20
2023-05-06T07:00:10.251Z,15.90
2023-05-06T07:02:36.874Z,16.15
2023-05-06T07:05:04.188Z,14.25
2023-05-06T07:07:30.768Z,12.40
2023-05-06T07:09:57.761Z,12.70
2023-05-06T07:12:26.679Z,11.93
2023-05-06T07:14:53.208Z,15.52
2023-05-06T07:17:19.894Z,12.93
2023-05-06T07:19:46.445Z,13.25
2023-05-06T07:22:12.960Z,12.60
2023-05-06T07:24:39.455Z,14.60
2023-05-06T07:27:06.001Z,12.68
2023-05-06T07:29:32.622Z,13.88
2023-05-06T07:31:59.121Z,12.38
2023-05-06T07:34:25.743Z,13.15
2023-05-06T07:36:52.258Z,15.02
2023-05-06T07:39:18.867Z,13.27
2023-05-06T07:41:45.792Z,13.60
2023-05-06T07:44:12.385Z,10.60
2023-05-06T07:46:39.038Z,9.82
2023-05-06T07:49:05.676Z,13.40
2023-05-06T07:51:32.991Z,9.82
2023-05-06T07:53:59.499Z,11.32
2023-05-06T07:56:26.195Z,10.30
2023-05-06T07:58:52.687Z,10.80
2023-05-06T08:01:19.225Z,10.73
2023-05-06T08:03:45.936Z,9.73
2023-05-06T08:06:12.583Z,9.55
2023-05-06T08:08:39.394Z,10.38
2023-05-06T08:11:05.983Z,10.05
2023-05-06T08:13:33.551Z,9.07
2023-05-06T08:16:02.296Z,8.43
2023-05-06T08:18:29.159Z,7.53
2023-05-06T08:20:55.974Z,7.80
2023-05-06T08:23:22.548Z,7.85
2023-05-06T08:25:49.131Z,8.30
2023-05-06T08:28:15.725Z,8.13
2023-05-06T08:30:42.266Z,7.90
2023-05-06T08:33:09.023Z,8.10
2023-05-06T08:35:35.718Z,7.97
2023-05-06T08:38:02.272Z,6.90
2023-05-06T08:40:32.679Z,8.32
2023-05-06T08:43:00.733Z,7.15
2023-05-06T08:45:29.526Z,8.95
2023-05-06T08:47:56.386Z,8.13
2023-05-06T08:50:23.869Z,6.50
2023-05-06T08:52:50.900Z,6.82
2023-05-06T08:55:19.289Z,7.70
2023-05-06T08:57:46.359Z,6.88
2023-05-06T09:00:13.494Z,5.13
2023-05-06T09:02:42.192Z,4.65
2023-05-06T09:05:13.551Z,6.57
2023-05-06T09:07:40.842Z,5.22
2023-05-06T09:10:13.041Z,5.47
2023-05-06T09:12:39.897Z,4.88
2023-05-06T09:15:07.228Z,4.45
2023-05-06T09:17:33.812Z,3.38
2023-05-06T09:20:00.491Z,4.95
2023-05-06T09:22:28.787Z,7.22
2023-05-06T09:24:57.147Z,4.53
2023-05-06T09:30:05.275Z,4.22
2023-05-06T09:32:32.988Z,4.82
2023-05-06T09:35:00.149Z,4.47
2023-05-06T09:37:27.334Z,3.15
2023-05-06T09:39:55.796Z,3.17
2023-05-06T09:42:26.872Z,3.13
2023-05-06T09:44:55.010Z,4.88
2023-05-06T09:47:23.034Z,4.05
2023-05-06T09:49:49.752Z,3.92
2023-05-06T09:52:17.178Z,3.75
2023-05-06T09:54:44.548Z,4.05
2023-05-06T09:57:13.631Z,2.78
2023-05-06T09:59:41.786Z,2.15
2023-05-06T10:02:08.986Z,3.42
2023-05-06T10:04:37.305Z,2.58
2023-05-06T10:07:05.093Z,4.93
2023-05-06T10:09:33.067Z,2.50
2023-05-06T10:12:00.724Z,4.15
2023-05-06T10:14:27.337Z,3.47
2023-05-06T10:16:57.547Z,2.38
2023-05-06T10:19:26.700Z,4.07
2023-05-06T10:22:20.661Z,2.97
2023-05-06T10:24:57.344Z,4.85
2023-05-06T10:27:26.643Z,5.20
2023-05-06T10:30:00.417Z,2.38
2023-05-06T10:32:32.069Z,3.10
2023-05-06T10:35:09.541Z,3.60
2023-05-06T10:37:38.370Z,3.67
2023-05-06T10:40:05.643Z,3.13
2023-05-06T10:42:35.568Z,5.30
2023-05-06T10:45:06.517Z,3.92
2023-05-06T10:47:54.847Z,5.43
2023-05-06T10:50:24.774Z,3.80
2023-05-06T10:52:56.237Z,4.13
2023-05-06T10:55:33.771Z,4.10
2023-05-06T10:58:04.093Z,2.88
2023-05-06T11:00:32.494Z,4.30
2023-05-06T11:03:06.964Z,4.85
2023-05-06T11:05:52.363Z,3.53
2023-05-06T11:08:26.312Z,6.57
2023-05-06T11:10:56.167Z,4.55
2023-05-06T11:13:27.608Z,6.97
2023-05-06T11:15:58.403Z,4.32
2023-05-06T11:18:42.352Z,3.55
2023-05-06T11:21:08.891Z,3.05
2023-05-06T11:23:42.026Z,3.50
2023-05-06T11:26:10.603Z,4.60
2023-05-06T11:28:38.651Z,4.65
2023-05-06T11:33:34.366Z,3.85
2023-05-06T11:36:01.661Z,3.78
2023-05-06T11:38:54.252Z,3.20
2023-05-06T11:43:50.284Z,4.85
2023-05-06T11:46:19.074Z,3.15
2023-05-06T11:48:45.884Z,5.32
2023-05-06T11:51:12.396Z,3.97
2023-05-06T11:53:39.042Z,3.67
2023-05-06T11:56:08.554Z,3.40
2023-05-06T11:58:35.228Z,3.60
2023-05-06T12:01:03.755Z,2.80
2023-05-06T12:03:32.019Z,4.32
2023-05-06T12:05:59.268Z,3.92
2023-05-06T12:08:30.429Z,2.90
2023-05-06T12:11:02.008Z,3.03
2023-05-06T12:13:29.457Z,2.97
2023-05-06T12:16:00.209Z,4.00
2023-05-06T12:18:27.894Z,3.25
2023-05-06T12:20:55.312Z,3.75
2023-05-06T12:23:22.116Z,5.03
2023-05-06T12:26:02.805Z,3.35
2023-05-06T12:28:31.741Z,2.80
2023-05-06T12:30:58.285Z,2.65
2023-05-06T12:33:25.029Z,4.32
2023-05-06T12:35:52.598Z,3.25
2023-05-06T12:38:19.252Z,4.05
2023-05-06T12:40:53.449Z,3.13
2023-05-06T12:46:05.934Z,4.80
2023-05-06T12:48:32.767Z,4.10
2023-05-06T12:50:59.309Z,2.47
2023-05-06T12:53:34.578Z,2.75
2023-05-06T12:56:01.157Z,3.22
2023-05-06T12:58:27.654Z,4.60
2023-05-06T13:00:54.181Z,3.33
2023-05-06T13:03:21.150Z,3.65
2023-05-06T13:05:50.145Z,3.33
2023-05-06T13:08:16.752Z,2.35
2023-05-06T13:10:43.265Z,4.13
2023-05-06T13:13:09.756Z,30.80
2023-05-06T13:15:36.654Z,3.40
2023-05-06T13:18:03.439Z,4.18
2023-05-06T13:20:30.916Z,3.65
2023-05-06T13:22:57.401Z,4.07
2023-05-06T13:25:23.929Z,4.25
2023-05-06T13:27:50.404Z,3.00
2023-05-06T13:30:17.155Z,4.85
2023-05-06T13:32:43.808Z,2.15
2023-05-06T13:35:10.660Z,2.83
2023-05-06T13:37:37.355Z,3.17
2023-05-06T13:40:04.859Z,4.15
2023-05-06T13:42:31.555Z,4.32
2023-05-06T13:44:58.085Z,4.25
2023-05-06T13:47:25.166Z,2.13
2023-05-06T13:49:54.584Z,3.17
2023-05-06T13:52:21.125Z,3.28
2023-05-06T13:54:47.623Z,1.70
2023-05-06T13:57:14.093Z,2.88
2023-05-06T13:59:40.828Z,5.25
2023-05-06T14:02:09.593Z,3.40
2023-05-06T14:04:36.563Z,4.13
2023-05-06T14:07:03.236Z,3.60
2023-05-06T14:09:29.745Z,3.53
2023-05-06T14:11:58.353Z,3.05
2023-05-06T14:14:24.804Z,2.47
2023-05-06T14:16:54.451Z,2.95
2023-05-06T14:19:21.314Z,5.13
2023-05-06T14:21:47.952Z,3.35
2023-05-06T14:24:14.698Z,2.58
2023-05-06T14:26:41.421Z,4.50
2023-05-06T14:29:08.087Z,3.85
2023-05-06T14:31:34.802Z,5.72
2023-05-06T14:34:02.169Z,4.45
2023-05-06T14:36:28.729Z,2.90
2023-05-06T14:38:55.243Z,2.33
2023-05-06T14:41:21.805Z,3.95
2023-05-06T14:43:51.029Z,4.72
2023-05-06T14:46:17.837Z,3.17
2023-05-06T14:48:45.513Z,2.97
2023-05-06T14:51:12.052Z,2.97
2023-05-06T14:53:38.554Z,3.40
2023-05-06T14:56:09.268Z,2.95
2023-05-06T14:58:35.838Z,4.45
2023-05-06T15:01:02.364Z,3.13
2023-05-06T15:03:28.909Z,4.75
2023-05-06T15:05:55.606Z,2.45
2023-05-06T15:08:22.898Z,7.20
2023-05-06T15:10:49.642Z,4.57
2023-05-06T15:13:16.294Z,6.30
2023-05-06T15:15:42.788Z,3.70
2023-05-06T15:18:09.630Z,5.22
2023-05-06T15:20:36.586Z,3.17
2023-05-06T15:23:03.136Z,7.32
2023-05-06T15:25:34.995Z,2.67
2023-05-06T15:28:03.897Z,2.80
2023-05-06T15:30:30.639Z,3.78
2023-05-06T15:32:57.263Z,4.45
2023-05-06T15:35:23.793Z,1.88
2023-05-06T15:37:55.598Z,3.30
2023-05-06T15:40:25.445Z,3.95
2023-05-06T15:42:52.359Z,3.47
2023-05-06T15:45:19.642Z,4.88
2023-05-06T15:47:48.109Z,7.13
2023-05-06T15:52:58.106Z,3.65
2023-05-06T15:55:26.369Z,2.78
2023-05-06T16:00:21.965Z,2.97
2023-05-06T16:02:48.790Z,3.55
2023-05-06T16:05:15.910Z,5.55
2023-05-06T16:07:42.505Z,4.57
2023-05-06T16:10:09.343Z,5.70
2023-05-06T16:12:36.106Z,4.75
2023-05-06T16:15:03.328Z,4.88
2023-05-06T16:17:30.275Z,4.40
2023-05-06T16:19:57.036Z,3.17
2023-05-06T16:22:23.511Z,4.25
2023-05-06T16:24:50.005Z,3.38
2023-05-06T16:27:16.515Z,5.07
2023-05-06T16:29:43.103Z,4.78
2023-05-06T16:32:09.660Z,6.13
2023-05-06T16:34:38.879Z,6.40
2023-05-06T16:37:07.883Z,5.97
2023-05-06T16:39:34.622Z,6.35
2023-05-06T16:42:01.846Z,6.60
2023-05-06T16:44:29.144Z,5.85
2023-05-06T16:46:56.029Z,5.18
2023-05-06T16:49:22.692Z,6.07
2023-05-06T16:51:49.274Z,4.30
2023-05-06T16:54:15.848Z,4.85
2023-05-06T16:56:51.388Z,4.60
2023-05-06T16:59:21.641Z,4.03
2023-05-06T17:01:48.636Z,5.65
2023-05-06T17:04:16.029Z,7.05
2023-05-06T17:06:45.311Z,4.28
2023-05-06T17:09:12.278Z,4.97
2023-05-06T17:11:38.897Z,4.63
2023-05-06T17:14:05.539Z,3.35
2023-05-06T17:16:32.139Z,3.63
2023-05-06T17:18:58.763Z,5.15
2023-05-06T17:21:25.779Z,4.63
2023-05-06T17:23:54.448Z,4.05
2023-05-06T17:26:21.500Z,4.28
2023-05-06T17:28:48.350Z,3.60
2023-05-06T17:31:15.746Z,4.60
2023-05-06T17:33:42.362Z,5.97
2023-05-06T17:36:09.045Z,4.30
2023-05-06T17:38:35.560Z,4.03
2023-05-06T17:41:02.162Z,4.10
2023-05-06T17:43:28.891Z,2.75
2023-05-06T17:45:55.964Z,3.40
2023-05-06T17:48:22.991Z,4.72
2023-05-06T17:50:49.468Z,4.43
2023-05-06T17:53:17.902Z,2.53
2023-05-06T17:55:44.414Z,3.53
2023-05-06T17:58:11.112Z,2.95
2023-05-06T18:00:38.206Z,2.17
2023-05-06T18:03:04.903Z,3.45
2023-05-06T18:05:31.452Z,3.17
2023-05-06T18:07:58.484Z,2.85
2023-05-06T18:10:26.282Z,3.05
2023-05-06T18:12:53.610Z,3.38
2023-05-06T18:15:20.374Z,3.05
2023-05-06T18:17:46.944Z,4.70
2023-05-06T18:20:13.705Z,5.32
2023-05-06T18:22:40.316Z,6.45
2023-05-06T18:25:07.820Z,6.68
2023-05-06T18:27:34.570Z,4.60
2023-05-06T18:30:01.112Z,5.57
2023-05-06T18:32:27.643Z,3.65
2023-05-06T18:34:54.188Z,4.75
2023-05-06T18:37:20.929Z,5.15
2023-05-06T18:39:47.433Z,9.38
2023-05-06T18:42:14.061Z,4.57
2023-05-06T18:44:42.383Z,4.40
2023-05-06T18:47:08.931Z,5.25
2023-05-06T18:49:35.564Z,6.00
2023-05-06T18:52:05.306Z,5.00
2023-05-06T18:54:31.862Z,5.45
2023-05-06T18:56:58.687Z,6.13
2023-05-06T18:59:25.833Z,8.65
2023-05-06T19:01:52.465Z,6.78
2023-05-06T19:04:19.226Z,5.22
2023-05-06T19:06:45.777Z,6.22
2023-05-06T19:09:12.747Z,5.88
2023-05-06T19:11:39.301Z,6.22
2023-05-06T19:14:05.793Z,5.18
2023-05-06T19:16:32.408Z,5.70
2023-05-06T19:18:58.996Z,6.40
2023-05-06T19:21:25.557Z,4.68
2023-05-06T19:23:53.130Z,4.78
2023-05-06T19:26:19.603Z,5.20
2023-05-06T19:28:46.048Z,4.25
2023-05-06T19:31:12.590Z,5.82
2023-05-06T19:33:39.814Z,4.00
2023-05-06T19:36:06.656Z,5.40
2023-05-06T19:38:33.890Z,3.75
2023-05-06T19:41:00.406Z,4.07
2023-05-06T19:43:26.964Z,4.43
2023-05-06T19:45:53.558Z,4.38
2023-05-06T19:48:20.639Z,5.75
2023-05-06T19:50:47.154Z,4.10
2023-05-06T19:53:13.679Z,5.32
2023-05-06T19:55:40.346Z,3.95
2023-05-06T19:58:06.938Z,4.55
2023-05-06T20:00:33.480Z,4.55
2023-05-06T20:03:00.609Z,5.15
2023-05-06T20:05:31.961Z,4.97
2023-05-06T20:08:01.800Z,5.15
2023-05-06T20:10:28.867Z,6.25
2023-05-06T20:12:57.652Z,6.35
2023-05-06T20:15:24.834Z,7.78
2023-05-06T20:17:51.436Z,7.18
2023-05-06T20:20:19.333Z,7.53
2023-05-06T20:22:46.012Z,5.25
2023-05-06T20:25:16.147Z,5.22
2023-05-06T20:27:43.687Z,4.35
2023-05-06T20:30:10.646Z,6.55
2023-05-06T20:32:38.231Z,4.82
2023-05-06T20:35:06.238Z,4.88
2023-05-06T20:37:36.610Z,4.22
2023-05-06T20:40:04.932Z,4.95
2023-05-06T20:42:31.830Z,5.53
2023-05-06T20:44:59.188Z,4.30
2023-05-06T20:47:26.506Z,6.30
2023-05-06T20:49:53.160Z,5.20
2023-05-06T20:52:21.475Z,4.13
2023-05-06T20:54:48.988Z,5.45
2023-05-06T20:57:16.769Z,5.72
2023-05-06T20:59:43.514Z,5.90
2023-05-06T21:02:10.474Z,3.17
2023-05-06T21:04:37.237Z,7.20
2023-05-06T21:07:03.765Z,6.40
2023-05-06T21:09:30.459Z,6.50
2023-05-06T21:11:58.690Z,4.97
2023-05-06T21:14:26.521Z,5.35
2023-05-06T21:16:53.398Z,4.90
2023-05-06T21:19:19.976Z,6.38
2023-05-06T21:21:48.309Z,7.47
2023-05-06T21:24:15.070Z,6.40
2023-05-06T21:26:41.649Z,7.10
2023-05-06T21:29:08.248Z,6.65
2023-05-06T21:31:34.869Z,7.28
2023-05-06T21:34:01.589Z,5.15
2023-05-06T21:36:28.088Z,4.60
2023-05-06T21:39:21.004Z,5.57
2023-05-06T21:41:47.536Z,5.82
2023-05-06T21:44:14.083Z,5.32
2023-05-06T21:46:40.869Z,4.72
2023-05-06T21:49:07.389Z,5.07
2023-05-06T21:51:35.870Z,7.85
2023-05-06T21:54:03.222Z,6.70
2023-05-06T21:56:29.791Z,4.97
2023-05-06T21:58:56.336Z,6.40
2023-05-06T22:01:27.594Z,7.05
2023-05-06T22:03:54.365Z,5.72
2023-05-06T22:06:21.435Z,4.78
2023-05-06T22:08:47.986Z,6.50
2023-05-06T22:11:14.615Z,6.70
2023-05-06T22:13:41.165Z,6.05
2023-05-06T22:16:08.197Z,6.43
2023-05-06T22:18:36.008Z,5.90
2023-05-06T22:21:03.320Z,5.85
2023-05-06T22:23:29.926Z,5.28
2023-05-06T22:25:57.432Z,5.90
2023-05-06T22:28:24.966Z,7.45
2023-05-06T22:30:51.515Z,6.13
2023-05-06T22:33:18.154Z,4.63
2023-05-06T22:35:44.834Z,6.60
2023-05-06T22:38:11.382Z,6.22
2023-05-06T22:40:37.954Z,5.80
2023-05-06T22:43:04.510Z,5.72
2023-05-06T22:45:31.029Z,4.85
2023-05-06T22:47:57.746Z,7.13
2023-05-06T22:50:25.029Z,5.43
2023-05-06T22:52:51.619Z,4.43
2023-05-06T22:55:18.178Z,5.00
2023-05-06T22:57:44.926Z,4.60
2023-05-06T23:00:12.792Z,6.28
2023-05-06T23:02:39.843Z,4.03
2023-05-06T23:05:06.656Z,3.70
2023-05-06T23:07:33.342Z,4.13
2023-05-06T23:09:59.845Z,4.88
2023-05-06T23:12:26.465Z,3.83
2023-05-06T23:14:53.064Z,3.40
2023-05-06T23:17:19.584Z,5.70
2023-05-06T23:19:46.135Z,4.15
2023-05-06T23:22:12.671Z,4.90
2023-05-06T23:24:39.567Z,4.30
2023-05-06T23:27:06.044Z,4.30
2023-05-06T23:29:32.564Z,5.75
2023-05-06T23:31:59.328Z,6.43
2023-05-06T23:34:26.200Z,6.80
2023-05-06T23:36:52.959Z,4.15
2023-05-06T23:39:19.484Z,4.15
2023-05-06T23:41:46.021Z,4.18
2023-05-06T23:44:12.557Z,5.20
2023-05-06T23:46:39.085Z,4.50
2023-05-06T23:49:05.955Z,4.55
2023-05-06T23:51:32.697Z,6.10
2023-05-06T23:53:59.172Z,3.67
2023-05-06T23:56:25.777Z,6.38
2023-05-06T23:58:52.323Z,5.05
